X  Close Metar Aviation Weather Data     LIML Milano Linate Airport
Temperature
21°C Temperature
20°C Dewpoint
94% Humidity



Wind
5 KM/H
3 MPH
1 M/S
3 KTS



260°
West
Current Conditions

Mostly Cloudy Mostly Cloudy
Pressure 1012.92 (hPa) - 29.91 (inHg)
Visibility 6.2 (mile) - 10 (km)
Airport
Airport-code LIML

Location: Milano Linate Airport
Distance: 100 (km)

Metar:
LIML 140420Z AUTO 26003KT 220V280 9999 BKN130/// 21/20 Q1013

Time: 14-08-2020 06:20 CEST